createdAt,value
2018-09-02T00:00:11.022Z,5.47
2018-09-02T00:02:39.102Z,5.17
2018-09-02T00:05:07.188Z,5.63
2018-09-02T00:07:35.298Z,7.33
2018-09-02T00:10:03.383Z,6.63
2018-09-02T00:12:31.448Z,5.90
2018-09-02T00:14:59.536Z,5.97
2018-09-02T00:17:27.803Z,6.47
2018-09-02T00:19:55.864Z,5.03
2018-09-02T00:22:24.101Z,4.77
2018-09-02T00:24:52.148Z,6.07
2018-09-02T00:27:20.226Z,4.73
2018-09-02T00:29:48.304Z,5.00
2018-09-02T00:32:16.362Z,5.50
2018-09-02T00:34:44.484Z,4.17
2018-09-02T00:37:12.554Z,6.07
2018-09-02T00:39:40.623Z,4.43
2018-09-02T00:42:08.688Z,6.13
2018-09-02T00:44:36.769Z,5.27
2018-09-02T00:47:04.888Z,4.47
2018-09-02T00:49:32.960Z,6.70
2018-09-02T00:52:01.002Z,4.80
2018-09-02T00:54:29.057Z,5.40
2018-09-02T00:56:57.149Z,7.17
2018-09-02T00:59:25.215Z,4.90
2018-09-02T01:01:53.292Z,5.03
2018-09-02T01:04:21.481Z,6.13
2018-09-02T01:06:49.580Z,8.53
2018-09-02T01:09:17.617Z,6.20
2018-09-02T01:11:45.675Z,5.07
2018-09-02T01:14:13.739Z,5.23
2018-09-02T01:16:41.818Z,5.37
2018-09-02T01:19:09.858Z,5.23
2018-09-02T01:21:37.928Z,6.47
2018-09-02T01:24:05.989Z,4.63
2018-09-02T01:26:34.274Z,5.50
2018-09-02T01:29:02.322Z,5.40
2018-09-02T01:31:30.400Z,5.13
2018-09-02T01:33:58.470Z,5.90
2018-09-02T01:36:26.566Z,5.23
2018-09-02T01:38:54.631Z,5.43
2018-09-02T01:41:22.886Z,5.30
2018-09-02T01:43:50.928Z,6.20
2018-09-02T01:46:19.161Z,5.40
2018-09-02T01:48:47.209Z,6.77
2018-09-02T01:51:15.274Z,6.57
2018-09-02T01:53:43.340Z,5.23
2018-09-02T01:56:11.425Z,7.43
2018-09-02T01:58:39.647Z,7.13
2018-09-02T02:01:07.758Z,6.03
2018-09-02T02:03:36.067Z,8.37
2018-09-02T02:06:04.119Z,8.20
2018-09-02T02:08:32.191Z,6.27
2018-09-02T02:11:00.249Z,7.20
2018-09-02T02:13:28.355Z,6.53
2018-09-02T02:15:56.408Z,9.07
2018-09-02T02:18:24.480Z,6.53
2018-09-02T02:20:52.513Z,6.70
2018-09-02T02:23:20.563Z,7.63
2018-09-02T02:25:48.597Z,7.30
2018-09-02T02:28:16.671Z,6.50
2018-09-02T02:30:44.723Z,7.10
2018-09-02T02:33:12.819Z,6.93
2018-09-02T02:35:40.848Z,8.57
2018-09-02T02:38:08.918Z,6.40
2018-09-02T02:40:37.067Z,7.90
2018-09-02T02:43:05.325Z,7.10
2018-09-02T02:45:33.473Z,8.20
2018-09-02T02:48:01.568Z,10.30
2018-09-02T02:50:29.682Z,6.53
2018-09-02T02:53:03.499Z,6.43
2018-09-02T02:55:32.323Z,7.17
2018-09-02T02:58:00.886Z,7.33
2018-09-02T03:00:28.989Z,6.37
2018-09-02T03:02:57.232Z,6.23
2018-09-02T03:05:25.282Z,7.37
2018-09-02T03:07:53.379Z,10.87
2018-09-02T03:10:21.475Z,7.57
2018-09-02T03:12:49.527Z,7.47
2018-09-02T03:15:18.263Z,8.50
2018-09-02T03:17:46.482Z,7.10
2018-09-02T03:20:14.794Z,8.17
2018-09-02T03:22:43.071Z,6.53
2018-09-02T03:25:11.436Z,8.33
2018-09-02T03:27:39.546Z,6.57
2018-09-02T03:30:07.637Z,6.33
2018-09-02T03:32:35.723Z,8.60
2018-09-02T03:35:03.942Z,9.77
2018-09-02T03:37:32.032Z,7.43
2018-09-02T03:40:00.224Z,8.37
2018-09-02T03:42:28.288Z,6.63
2018-09-02T03:44:56.377Z,7.93
2018-09-02T03:47:24.460Z,8.67
2018-09-02T03:49:52.566Z,8.10
2018-09-02T03:52:20.652Z,10.30
2018-09-02T03:54:48.916Z,8.30
2018-09-02T03:57:17.056Z,6.43
2018-09-02T03:59:45.109Z,8.17
2018-09-02T04:02:13.166Z,8.27
2018-09-02T04:04:41.266Z,6.50
2018-09-02T04:07:09.336Z,9.13
2018-09-02T04:09:37.439Z,8.93
2018-09-02T04:12:05.801Z,9.60
2018-09-02T04:14:33.869Z,6.93
2018-09-02T04:17:01.930Z,7.97
2018-09-02T04:19:30.044Z,7.80
2018-09-02T04:21:58.147Z,8.63
2018-09-02T04:24:26.252Z,8.33
2018-09-02T04:26:54.309Z,8.97
2018-09-02T04:29:22.394Z,8.83
2018-09-02T04:31:50.471Z,9.23
2018-09-02T04:34:18.546Z,11.33
2018-09-02T04:36:46.619Z,10.40
2018-09-02T04:39:14.735Z,8.30
2018-09-02T04:41:42.843Z,7.70
2018-09-02T04:44:10.920Z,9.33
2018-09-02T04:46:39.013Z,10.20
2018-09-02T04:49:07.120Z,7.67
2018-09-02T04:51:35.186Z,9.13
2018-09-02T04:54:03.286Z,9.40
2018-09-02T04:56:31.347Z,8.47
2018-09-02T04:58:59.406Z,9.03
2018-09-02T05:01:27.557Z,7.77
2018-09-02T05:03:55.632Z,8.63
2018-09-02T05:06:23.702Z,9.57
2018-09-02T05:08:51.892Z,9.47
2018-09-02T05:11:20.030Z,10.03
2018-09-02T05:13:48.140Z,9.70
2018-09-02T05:16:16.233Z,11.33
2018-09-02T05:18:44.316Z,9.97
2018-09-02T05:21:12.388Z,9.93
2018-09-02T05:23:40.510Z,10.33
2018-09-02T05:26:08.603Z,11.13
2018-09-02T05:28:36.711Z,8.90
2018-09-02T05:31:04.978Z,10.23
2018-09-02T05:33:33.154Z,10.67
2018-09-02T05:36:01.274Z,10.80
2018-09-02T05:38:29.376Z,9.10
2018-09-02T05:40:57.500Z,12.53
2018-09-02T05:43:25.645Z,12.07
2018-09-02T05:45:53.743Z,11.73
2018-09-02T05:48:21.833Z,13.00
2018-09-02T05:50:49.943Z,11.70
2018-09-02T05:53:18.019Z,14.87
2018-09-02T05:55:46.096Z,17.13
2018-09-02T05:58:14.212Z,14.87
2018-09-02T06:00:42.332Z,14.83
2018-09-02T06:03:10.481Z,16.27
2018-09-02T06:05:38.590Z,16.30
2018-09-02T06:08:06.693Z,20.73
2018-09-02T06:10:34.768Z,18.93
2018-09-02T06:13:02.835Z,20.30
2018-09-02T06:15:30.911Z,19.37
2018-09-02T06:17:59.008Z,18.60
2018-09-02T06:20:27.129Z,21.77
2018-09-02T06:22:55.225Z,20.80
2018-09-02T06:25:23.324Z,27.23
2018-09-02T06:27:51.414Z,27.27
2018-09-02T06:30:19.487Z,27.40
2018-09-02T06:32:47.602Z,30.13
2018-09-02T06:35:15.634Z,24.17
2018-09-02T06:37:43.683Z,27.07
2018-09-02T06:40:11.778Z,23.93
2018-09-02T06:42:39.907Z,25.37
2018-09-02T06:45:08.032Z,24.50
2018-09-02T06:47:36.092Z,24.47
2018-09-02T06:50:04.159Z,23.20
2018-09-02T06:52:32.247Z,23.53
2018-09-02T06:55:00.398Z,23.67
2018-09-02T06:57:28.510Z,23.77
2018-09-02T06:59:56.602Z,23.63
2018-09-02T07:02:24.712Z,21.40
2018-09-02T07:04:52.819Z,20.93
2018-09-02T07:07:20.952Z,24.43
2018-09-02T07:09:49.032Z,23.83
2018-09-02T07:12:17.199Z,23.77
2018-09-02T07:14:45.347Z,24.60
2018-09-02T07:17:13.430Z,22.27
2018-09-02T07:19:41.515Z,25.20
2018-09-02T07:22:09.588Z,25.43
2018-09-02T07:24:37.664Z,22.10
2018-09-02T07:27:06.173Z,28.90
2018-09-02T07:29:34.299Z,26.33
2018-09-02T07:32:02.534Z,28.80
2018-09-02T07:34:30.688Z,30.60
2018-09-02T07:36:58.763Z,29.17
2018-09-02T07:39:26.920Z,30.33
2018-09-02T07:41:55.020Z,33.17
2018-09-02T07:44:23.074Z,28.13
2018-09-02T07:46:51.219Z,25.67
2018-09-02T07:49:19.297Z,27.23
2018-09-02T07:51:47.405Z,27.93
2018-09-02T07:54:15.502Z,24.47
2018-09-02T07:56:43.638Z,28.93
2018-09-02T07:59:11.755Z,22.97
2018-09-02T08:01:39.907Z,24.60
2018-09-02T08:04:08.164Z,24.53
2018-09-02T08:06:36.239Z,22.63
2018-09-02T08:09:07.021Z,23.17
2018-09-02T08:11:35.095Z,23.00
2018-09-02T08:14:03.139Z,22.20
2018-09-02T08:16:31.277Z,23.47
2018-09-02T08:18:59.398Z,27.23
2018-09-02T08:21:27.522Z,25.63
2018-09-02T08:23:55.637Z,26.37
2018-09-02T08:26:23.734Z,24.03
2018-09-02T08:28:51.877Z,25.93
2018-09-02T08:31:19.914Z,27.13
2018-09-02T08:33:47.959Z,30.47
2018-09-02T08:36:16.059Z,27.13
2018-09-02T08:38:44.142Z,25.70
2018-09-02T08:41:12.314Z,28.43
2018-09-02T08:43:40.428Z,26.20
2018-09-02T08:46:08.512Z,22.67
2018-09-02T08:48:36.589Z,26.17
2018-09-02T08:51:04.982Z,25.17
2018-09-02T08:53:33.065Z,25.47
2018-09-02T08:56:01.196Z,23.27
2018-09-02T08:58:29.216Z,23.57
2018-09-02T09:00:57.320Z,22.20
2018-09-02T09:03:25.390Z,22.63
2018-09-02T09:05:53.577Z,22.37
2018-09-02T09:08:21.763Z,22.23
2018-09-02T09:10:49.837Z,18.30
2018-09-02T09:13:17.916Z,19.67
2018-09-02T09:15:46.044Z,19.50
2018-09-02T09:18:14.146Z,15.80
2018-09-02T09:20:42.230Z,16.33
2018-09-02T09:23:10.311Z,16.50
2018-09-02T09:25:38.373Z,15.23
2018-09-02T09:28:06.463Z,14.50
2018-09-02T09:30:34.618Z,13.77
2018-09-02T09:33:02.687Z,13.77
2018-09-02T09:35:30.772Z,14.97
2018-09-02T09:37:59.050Z,12.50
2018-09-02T09:40:27.161Z,10.17
2018-09-02T09:42:55.221Z,9.33
2018-09-02T09:45:23.329Z,11.20
2018-09-02T09:47:51.396Z,9.80
2018-09-02T09:50:19.468Z,10.10
2018-09-02T09:52:47.563Z,8.13
2018-09-02T09:55:15.604Z,8.83
2018-09-02T09:57:43.743Z,12.93
2018-09-02T10:00:11.790Z,9.13
2018-09-02T10:02:39.861Z,8.53
2018-09-02T10:05:07.946Z,9.23
2018-09-02T10:07:36.021Z,9.87
2018-09-02T10:12:38.535Z,8.00
2018-09-02T10:15:06.663Z,11.77
2018-09-02T10:17:34.741Z,9.10
2018-09-02T10:20:02.785Z,8.93
2018-09-02T10:22:30.862Z,8.73
2018-09-02T10:24:58.929Z,8.17
2018-09-02T10:27:27.085Z,10.30
2018-09-02T10:29:55.213Z,8.47
2018-09-02T10:32:23.246Z,8.07
2018-09-02T10:34:51.319Z,8.30
2018-09-02T10:37:19.415Z,10.90
2018-09-02T10:39:47.545Z,13.20
2018-09-02T10:42:15.629Z,9.90
2018-09-02T10:44:43.680Z,9.03
2018-09-02T10:47:11.790Z,7.07
2018-09-02T10:49:39.920Z,9.50
2018-09-02T10:52:08.066Z,7.73
2018-09-02T10:54:36.132Z,8.77
2018-09-02T10:57:04.226Z,9.30
2018-09-02T10:59:32.330Z,8.47
2018-09-02T11:02:00.374Z,9.10
2018-09-02T11:04:28.447Z,8.70
2018-09-02T11:06:56.799Z,6.10
2018-09-02T11:09:24.903Z,6.93
2018-09-02T11:11:52.943Z,6.23
2018-09-02T11:14:21.015Z,5.33
2018-09-02T11:16:49.075Z,8.37
2018-09-02T11:19:17.186Z,6.57
2018-09-02T11:21:45.250Z,4.97
2018-09-02T11:24:13.404Z,6.47
2018-09-02T11:26:41.448Z,5.07
2018-09-02T11:29:09.542Z,6.87
2018-09-02T11:31:37.661Z,5.00
2018-09-02T11:34:05.769Z,5.47
2018-09-02T11:36:33.788Z,4.90
2018-09-02T11:39:01.859Z,6.53
2018-09-02T11:41:29.932Z,5.60
2018-09-02T11:43:58.002Z,5.70
2018-09-02T11:46:26.084Z,4.93
2018-09-02T11:48:54.123Z,4.73
2018-09-02T11:51:22.184Z,6.63
2018-09-02T11:53:50.292Z,6.87
2018-09-02T11:56:18.333Z,6.83
2018-09-02T11:58:46.452Z,8.47
2018-09-02T12:01:14.506Z,5.73
2018-09-02T12:03:42.618Z,5.70
2018-09-02T12:06:10.694Z,4.93
2018-09-02T12:08:38.767Z,7.00
2018-09-02T12:11:06.862Z,5.50
2018-09-02T12:13:34.959Z,6.63
2018-09-02T12:16:03.060Z,8.23
2018-09-02T12:18:31.203Z,6.60
2018-09-02T12:20:59.250Z,6.87
2018-09-02T12:23:27.349Z,7.27
2018-09-02T12:25:55.453Z,6.20
2018-09-02T12:28:23.556Z,7.10
2018-09-02T12:30:51.637Z,5.83
2018-09-02T12:33:19.769Z,5.67
2018-09-02T12:35:47.855Z,5.93
2018-09-02T12:38:15.920Z,9.03
2018-09-02T12:40:44.026Z,5.20
2018-09-02T12:43:12.067Z,6.87
2018-09-02T12:45:40.169Z,8.10
2018-09-02T12:48:08.260Z,5.43
2018-09-02T12:50:36.349Z,8.47
2018-09-02T12:53:05.414Z,6.63
2018-09-02T12:55:33.699Z,6.70
2018-09-02T12:58:01.867Z,6.33
2018-09-02T13:00:29.950Z,6.17
2018-09-02T13:02:58.151Z,5.90
2018-09-02T13:05:26.754Z,5.63
2018-09-02T13:07:55.082Z,7.20
2018-09-02T13:10:23.143Z,6.67
2018-09-02T13:12:51.346Z,5.53
2018-09-02T13:15:19.914Z,5.40
2018-09-02T13:17:48.043Z,9.63
2018-09-02T13:20:16.190Z,8.07
2018-09-02T13:22:44.287Z,7.07
2018-09-02T13:25:13.244Z,7.33
2018-09-02T13:27:41.321Z,6.03
2018-09-02T13:30:10.305Z,8.87
2018-09-02T13:32:38.788Z,6.20
2018-09-02T13:35:07.181Z,8.20
2018-09-02T13:37:35.445Z,10.93
2018-09-02T13:40:04.344Z,7.00
2018-09-02T13:42:32.780Z,9.77
2018-09-02T13:45:01.528Z,7.43
2018-09-02T13:47:30.466Z,7.00
2018-09-02T13:49:58.596Z,8.53
2018-09-02T13:52:26.650Z,9.37
2018-09-02T13:54:54.746Z,5.87
2018-09-02T13:57:22.802Z,8.60
2018-09-02T13:59:50.883Z,9.70
2018-09-02T14:02:18.919Z,5.47
2018-09-02T14:04:46.975Z,7.90
2018-09-02T14:07:15.043Z,6.33
2018-09-02T14:09:43.156Z,6.47
2018-09-02T14:12:11.222Z,7.40
2018-09-02T14:14:39.317Z,8.77
2018-09-02T14:17:07.436Z,10.93
2018-09-02T14:19:35.576Z,8.80
2018-09-02T14:22:03.637Z,8.90
2018-09-02T14:24:31.759Z,10.20
2018-09-02T14:26:59.850Z,8.57
2018-09-02T14:29:27.988Z,7.20
2018-09-02T14:31:56.082Z,9.43
2018-09-02T14:34:24.326Z,8.63
2018-09-02T14:36:52.439Z,6.97
2018-09-02T14:39:20.555Z,6.47
2018-09-02T14:41:48.643Z,7.67
2018-09-02T14:44:16.693Z,7.10
2018-09-02T14:46:44.876Z,7.13
2018-09-02T14:49:12.930Z,8.87
2018-09-02T14:51:41.006Z,7.63
2018-09-02T14:54:09.088Z,7.37
2018-09-02T14:56:37.409Z,6.53
2018-09-02T14:59:05.629Z,7.00
2018-09-02T15:01:33.704Z,11.33
2018-09-02T15:04:01.785Z,8.93
2018-09-02T15:06:29.871Z,8.17
2018-09-02T15:08:57.918Z,10.10
2018-09-02T15:11:26.003Z,8.90
2018-09-02T15:13:54.079Z,7.00
2018-09-02T15:16:22.135Z,7.83
2018-09-02T15:18:50.279Z,7.57
2018-09-02T15:21:18.428Z,12.10
2018-09-02T15:23:46.411Z,8.27
2018-09-02T15:26:14.494Z,11.13
2018-09-02T15:28:42.617Z,9.33
2018-09-02T15:31:10.727Z,8.40
2018-09-02T15:33:39.798Z,7.37
2018-09-02T15:36:07.883Z,7.83
2018-09-02T15:38:35.942Z,8.00
2018-09-02T15:41:04.247Z,6.67
2018-09-02T15:43:32.300Z,6.00
2018-09-02T15:46:00.357Z,10.73
2018-09-02T15:48:28.419Z,19.50
2018-09-02T15:50:56.469Z,8.80
2018-09-02T15:53:24.509Z,7.50
2018-09-02T15:55:52.571Z,7.00
2018-09-02T15:58:20.634Z,8.30
2018-09-02T16:00:48.716Z,9.07
2018-09-02T16:03:16.769Z,7.23
2018-09-02T16:05:44.861Z,8.00
2018-09-02T16:08:12.979Z,7.90
2018-09-02T16:10:41.052Z,9.90
2018-09-02T16:13:09.129Z,11.63
2018-09-02T16:15:38.196Z,9.23
2018-09-02T16:18:06.271Z,11.07
2018-09-02T16:20:34.364Z,7.90
2018-09-02T16:23:02.431Z,8.60
2018-09-02T16:25:30.471Z,7.57
2018-09-02T16:27:58.574Z,7.50
2018-09-02T16:30:26.672Z,7.90
2018-09-02T16:32:54.786Z,7.83
2018-09-02T16:35:22.865Z,8.77
2018-09-02T16:37:51.000Z,10.23
2018-09-02T16:40:19.090Z,10.20
2018-09-02T16:42:48.337Z,8.70
2018-09-02T16:45:16.717Z,9.53
2018-09-02T16:47:45.007Z,22.23
2018-09-02T16:50:13.076Z,15.70
2018-09-02T16:52:41.164Z,8.87
2018-09-02T16:55:09.206Z,10.30
2018-09-02T16:57:37.316Z,11.13
2018-09-02T17:00:06.433Z,8.10
2018-09-02T17:02:34.478Z,9.07
2018-09-02T17:05:10.087Z,11.27
2018-09-02T17:07:40.217Z,8.20
2018-09-02T17:10:08.258Z,8.57
2018-09-02T17:12:36.476Z,7.83
2018-09-02T17:15:04.371Z,10.43
2018-09-02T17:17:32.447Z,11.73
2018-09-02T17:20:00.660Z,8.47
2018-09-02T17:22:35.621Z,8.97
2018-09-02T17:25:03.700Z,11.10
2018-09-02T17:27:31.784Z,9.37
2018-09-02T17:29:59.869Z,15.07
2018-09-02T17:32:28.122Z,12.73
2018-09-02T17:34:56.195Z,11.13
2018-09-02T17:37:24.284Z,11.77
2018-09-02T17:39:52.353Z,16.07
2018-09-02T17:42:20.428Z,11.37
2018-09-02T17:44:48.508Z,14.33
2018-09-02T17:47:16.585Z,13.57
2018-09-02T17:49:44.688Z,10.60
2018-09-02T17:52:12.811Z,12.30
2018-09-02T17:54:40.880Z,13.50
2018-09-02T17:57:08.939Z,12.20
2018-09-02T17:59:37.064Z,10.23
2018-09-02T18:02:05.403Z,12.57
2018-09-02T18:04:33.504Z,16.73
2018-09-02T18:07:01.619Z,16.13
2018-09-02T18:09:29.712Z,11.27
2018-09-02T18:11:57.803Z,11.73
2018-09-02T18:14:25.958Z,21.30
2018-09-02T18:16:54.030Z,14.10
2018-09-02T18:19:22.079Z,13.50
2018-09-02T18:21:50.203Z,12.43
2018-09-02T18:24:18.244Z,8.27
2018-09-02T18:26:46.350Z,9.80
2018-09-02T18:29:14.443Z,8.63
2018-09-02T18:31:42.610Z,12.10
2018-09-02T18:34:10.709Z,11.13
2018-09-02T18:36:38.786Z,10.77
2018-09-02T18:39:08.965Z,7.90
2018-09-02T18:41:37.095Z,8.80
2018-09-02T18:44:05.353Z,9.90
2018-09-02T18:46:33.547Z,8.77
2018-09-02T18:49:01.663Z,9.83
2018-09-02T18:51:29.770Z,12.70
2018-09-02T18:53:57.851Z,13.03
2018-09-02T18:56:25.999Z,20.10
2018-09-02T18:58:54.119Z,13.47
2018-09-02T19:01:22.190Z,12.83
2018-09-02T19:03:50.275Z,13.37
2018-09-02T19:06:18.377Z,10.20
2018-09-02T19:08:46.481Z,8.90
2018-09-02T19:11:14.638Z,9.10
2018-09-02T19:13:42.712Z,10.87
2018-09-02T19:16:10.823Z,8.83
2018-09-02T19:18:38.896Z,9.70
2018-09-02T19:21:06.975Z,12.57
2018-09-02T19:23:35.162Z,7.80
2018-09-02T19:26:03.184Z,13.50
2018-09-02T19:28:31.267Z,9.70
2018-09-02T19:30:59.361Z,10.07
2018-09-02T19:33:27.469Z,9.00
2018-09-02T19:35:55.566Z,12.03
2018-09-02T19:38:23.711Z,8.43
2018-09-02T19:40:51.829Z,10.77
2018-09-02T19:43:20.035Z,8.57
2018-09-02T19:45:48.114Z,12.47
2018-09-02T19:48:16.254Z,9.17
2018-09-02T19:50:44.741Z,9.60
2018-09-02T19:53:13.170Z,9.37
2018-09-02T19:55:41.240Z,9.47
2018-09-02T19:58:09.368Z,10.10
2018-09-02T20:00:37.455Z,7.70
2018-09-02T20:03:05.754Z,10.27
2018-09-02T20:05:33.877Z,9.63
2018-09-02T20:08:01.995Z,11.67
2018-09-02T20:10:30.063Z,8.87
2018-09-02T20:12:58.130Z,10.03
2018-09-02T20:15:26.254Z,9.60
2018-09-02T20:17:54.298Z,8.90
2018-09-02T20:20:22.390Z,10.47
2018-09-02T20:22:50.459Z,9.73
2018-09-02T20:25:18.552Z,10.20
2018-09-02T20:27:46.736Z,9.60
2018-09-02T20:30:14.822Z,9.03
2018-09-02T20:32:42.892Z,12.17
2018-09-02T20:35:11.112Z,10.63
2018-09-02T20:37:39.155Z,11.60
2018-09-02T20:40:07.475Z,8.70
2018-09-02T20:42:35.766Z,9.07
2018-09-02T20:45:03.838Z,10.23
2018-09-02T20:47:31.910Z,10.53
2018-09-02T20:50:00.086Z,9.10
2018-09-02T20:52:28.165Z,11.87
2018-09-02T20:54:56.267Z,11.47
2018-09-02T20:57:24.361Z,13.13
2018-09-02T20:59:52.444Z,9.17
2018-09-02T21:02:20.620Z,9.70
2018-09-02T21:04:48.665Z,8.83
2018-09-02T21:07:16.782Z,10.67
2018-09-02T21:09:44.900Z,10.00
2018-09-02T21:12:12.946Z,10.07
2018-09-02T21:14:41.010Z,9.93
2018-09-02T21:17:09.121Z,10.77
2018-09-02T21:19:37.200Z,11.97
2018-09-02T21:22:05.272Z,8.43
2018-09-02T21:24:33.346Z,12.03
2018-09-02T21:27:01.584Z,8.40
2018-09-02T21:29:29.666Z,8.93
2018-09-02T21:31:57.724Z,8.63
2018-09-02T21:34:25.806Z,9.50
2018-09-02T21:36:53.904Z,10.50
2018-09-02T21:39:21.941Z,9.03
2018-09-02T21:41:49.998Z,9.23
2018-09-02T21:44:23.902Z,10.60
2018-09-02T21:46:51.976Z,11.20
2018-09-02T21:49:20.048Z,11.43
2018-09-02T21:51:48.138Z,11.10
2018-09-02T21:54:16.207Z,14.80
2018-09-02T21:56:44.285Z,10.23
2018-09-02T21:59:12.350Z,12.17
2018-09-02T22:01:40.418Z,12.00
2018-09-02T22:04:08.492Z,12.13
2018-09-02T22:06:36.543Z,9.97
2018-09-02T22:09:12.100Z,11.07
2018-09-02T22:11:40.147Z,10.83
2018-09-02T22:14:08.294Z,9.87
2018-09-02T22:16:36.482Z,11.80
2018-09-02T22:19:04.726Z,12.20
2018-09-02T22:21:32.813Z,9.10
2018-09-02T22:24:00.921Z,9.47
2018-09-02T22:26:29.058Z,12.63
2018-09-02T22:28:57.113Z,11.83
2018-09-02T22:31:25.253Z,9.87
2018-09-02T22:33:53.328Z,10.57
2018-09-02T22:36:21.417Z,9.10
2018-09-02T22:38:49.555Z,9.17
2018-09-02T22:41:17.700Z,9.60
2018-09-02T22:43:45.982Z,13.50
2018-09-02T22:46:14.469Z,11.20
2018-09-02T22:48:42.538Z,10.63
2018-09-02T22:51:10.726Z,12.17
2018-09-02T22:53:38.986Z,9.90
2018-09-02T22:56:07.095Z,11.40
2018-09-02T22:58:35.151Z,9.20
2018-09-02T23:01:03.285Z,11.03
2018-09-02T23:03:31.326Z,8.83
2018-09-02T23:05:59.388Z,9.20
2018-09-02T23:08:27.462Z,9.57
2018-09-02T23:10:55.534Z,9.73
2018-09-02T23:13:23.598Z,8.13
2018-09-02T23:15:51.662Z,9.90
2018-09-02T23:18:19.729Z,9.33
2018-09-02T23:20:47.826Z,7.87
2018-09-02T23:23:15.886Z,9.30
2018-09-02T23:25:43.959Z,10.63
2018-09-02T23:28:12.117Z,8.63
2018-09-02T23:30:40.197Z,8.73
2018-09-02T23:33:08.460Z,9.23
2018-09-02T23:35:36.545Z,9.70
2018-09-02T23:38:04.743Z,8.90
2018-09-02T23:40:32.782Z,10.10
2018-09-02T23:43:00.856Z,8.40
2018-09-02T23:45:29.037Z,8.97
2018-09-02T23:48:04.070Z,8.60
2018-09-02T23:50:32.142Z,10.40
2018-09-02T23:53:00.204Z,8.20
2018-09-02T23:55:28.277Z,10.03
2018-09-02T23:57:56.406Z,8.23
